sensor_id;sensor_type;location;lat;lon;timestamp;P1;durP1;ratioP1;P2;durP2;ratioP2
60430;SDS011;46285;45.122;20.726;2023-05-07T00:03:48;8.25;;;4.03;;
60430;SDS011;46285;45.122;20.726;2023-05-07T00:13:49;10.73;;;4.63;;
60430;SDS011;46285;45.122;20.726;2023-05-07T00:23:51;11.10;;;4.60;;
60430;SDS011;46285;45.122;20.726;2023-05-07T00:33:52;7.88;;;4.72;;
60430;SDS011;46285;45.122;20.726;2023-05-07T00:43:53;9.05;;;4.95;;
60430;SDS011;46285;45.122;20.726;2023-05-07T00:53:54;7.70;;;4.88;;
60430;SDS011;46285;45.122;20.726;2023-05-07T01:03:55;7.88;;;4.80;;
60430;SDS011;46285;45.122;20.726;2023-05-07T01:13:57;11.40;;;5.60;;
60430;SDS011;46285;45.122;20.726;2023-05-07T01:24:00;8.32;;;4.90;;
60430;SDS011;46285;45.122;20.726;2023-05-07T01:34:04;9.50;;;5.35;;
60430;SDS011;46285;45.122;20.726;2023-05-07T01:44:07;10.02;;;5.25;;
60430;SDS011;46285;45.122;20.726;2023-05-07T01:54:10;9.32;;;5.43;;
60430;SDS011;46285;45.122;20.726;2023-05-07T02:04:12;9.13;;;5.13;;
60430;SDS011;46285;45.122;20.726;2023-05-07T02:14:13;12.10;;;4.78;;
60430;SDS011;46285;45.122;20.726;2023-05-07T02:24:15;9.82;;;5.10;;
60430;SDS011;46285;45.122;20.726;2023-05-07T02:34:16;10.10;;;5.32;;
60430;SDS011;46285;45.122;20.726;2023-05-07T02:44:17;11.02;;;5.38;;
60430;SDS011;46285;45.122;20.726;2023-05-07T02:54:22;9.90;;;6.20;;
60430;SDS011;46285;45.122;20.726;2023-05-07T03:04:24;11.68;;;6.35;;
60430;SDS011;46285;45.122;20.726;2023-05-07T03:14:25;9.65;;;4.90;;
60430;SDS011;46285;45.122;20.726;2023-05-07T03:24:26;8.30;;;5.45;;
60430;SDS011;46285;45.122;20.726;2023-05-07T03:34:27;9.93;;;6.25;;
60430;SDS011;46285;45.122;20.726;2023-05-07T03:44:29;9.80;;;5.60;;
60430;SDS011;46285;45.122;20.726;2023-05-07T03:54:32;10.40;;;4.85;;
60430;SDS011;46285;45.122;20.726;2023-05-07T04:04:34;8.98;;;4.75;;
60430;SDS011;46285;45.122;20.726;2023-05-07T04:14:35;14.68;;;5.20;;
60430;SDS011;46285;45.122;20.726;2023-05-07T04:24:37;7.70;;;4.35;;
60430;SDS011;46285;45.122;20.726;2023-05-07T04:34:39;8.80;;;3.97;;
60430;SDS011;46285;45.122;20.726;2023-05-07T04:44:43;10.02;;;4.07;;
60430;SDS011;46285;45.122;20.726;2023-05-07T04:54:44;10.23;;;4.10;;
60430;SDS011;46285;45.122;20.726;2023-05-07T05:04:46;9.57;;;4.07;;
60430;SDS011;46285;45.122;20.726;2023-05-07T05:14:47;8.77;;;3.65;;
60430;SDS011;46285;45.122;20.726;2023-05-07T05:24:49;9.35;;;3.70;;
60430;SDS011;46285;45.122;20.726;2023-05-07T05:34:51;8.73;;;3.63;;
60430;SDS011;46285;45.122;20.726;2023-05-07T05:44:52;7.82;;;3.35;;
60430;SDS011;46285;45.122;20.726;2023-05-07T05:54:54;8.88;;;3.33;;
60430;SDS011;46285;45.122;20.726;2023-05-07T06:04:55;13.70;;;3.13;;
60430;SDS011;46285;45.122;20.726;2023-05-07T06:14:57;5.97;;;2.40;;
60430;SDS011;46285;45.122;20.726;2023-05-07T06:24:59;9.52;;;3.05;;
60430;SDS011;46285;45.122;20.726;2023-05-07T06:35:00;7.65;;;3.08;;
60430;SDS011;46285;45.122;20.726;2023-05-07T06:45:01;6.85;;;2.95;;
60430;SDS011;46285;45.122;20.726;2023-05-07T06:55:05;7.28;;;2.58;;
60430;SDS011;46285;45.122;20.726;2023-05-07T07:05:07;5.47;;;1.90;;
60430;SDS011;46285;45.122;20.726;2023-05-07T07:15:08;6.13;;;2.63;;
60430;SDS011;46285;45.122;20.726;2023-05-07T07:25:10;9.23;;;3.08;;
60430;SDS011;46285;45.122;20.726;2023-05-07T07:35:12;7.28;;;2.83;;
60430;SDS011;46285;45.122;20.726;2023-05-07T07:45:14;7.90;;;2.63;;
60430;SDS011;46285;45.122;20.726;2023-05-07T07:55:20;6.65;;;2.42;;
60430;SDS011;46285;45.122;20.726;2023-05-07T08:05:22;8.70;;;2.80;;
60430;SDS011;46285;45.122;20.726;2023-05-07T08:15:25;7.93;;;3.10;;
60430;SDS011;46285;45.122;20.726;2023-05-07T08:25:26;6.38;;;2.42;;
60430;SDS011;46285;45.122;20.726;2023-05-07T08:35:30;7.50;;;2.58;;
60430;SDS011;46285;45.122;20.726;2023-05-07T08:45:32;7.07;;;2.25;;
60430;SDS011;46285;45.122;20.726;2023-05-07T08:55:34;9.30;;;3.13;;
60430;SDS011;46285;45.122;20.726;2023-05-07T09:05:37;6.78;;;2.88;;
60430;SDS011;46285;45.122;20.726;2023-05-07T09:15:41;6.32;;;2.50;;
60430;SDS011;46285;45.122;20.726;2023-05-07T09:25:43;7.32;;;2.60;;
60430;SDS011;46285;45.122;20.726;2023-05-07T09:35:51;7.88;;;2.65;;
60430;SDS011;46285;45.122;20.726;2023-05-07T09:45:54;6.13;;;2.55;;
60430;SDS011;46285;45.122;20.726;2023-05-07T09:55:58;8.65;;;3.38;;
60430;SDS011;46285;45.122;20.726;2023-05-07T10:06:00;6.32;;;2.55;;
60430;SDS011;46285;45.122;20.726;2023-05-07T10:16:03;7.47;;;3.27;;
60430;SDS011;46285;45.122;20.726;2023-05-07T10:26:10;6.90;;;3.33;;
60430;SDS011;46285;45.122;20.726;2023-05-07T10:36:12;5.95;;;2.65;;
60430;SDS011;46285;45.122;20.726;2023-05-07T11:06:27;7.20;;;2.33;;
60430;SDS011;46285;45.122;20.726;2023-05-07T11:16:34;6.70;;;3.08;;
60430;SDS011;46285;45.122;20.726;2023-05-07T11:26:49;5.90;;;3.17;;
60430;SDS011;46285;45.122;20.726;2023-05-07T11:36:52;6.45;;;2.45;;
60430;SDS011;46285;45.122;20.726;2023-05-07T11:47:00;8.57;;;3.67;;
60430;SDS011;46285;45.122;20.726;2023-05-07T11:57:01;7.53;;;3.00;;
60430;SDS011;46285;45.122;20.726;2023-05-07T12:07:02;7.30;;;2.80;;
60430;SDS011;46285;45.122;20.726;2023-05-07T12:17:03;6.45;;;2.58;;
60430;SDS011;46285;45.122;20.726;2023-05-07T12:27:05;8.25;;;2.88;;
60430;SDS011;46285;45.122;20.726;2023-05-07T12:37:06;7.88;;;2.80;;
60430;SDS011;46285;45.122;20.726;2023-05-07T12:47:07;7.25;;;2.20;;
60430;SDS011;46285;45.122;20.726;2023-05-07T12:57:09;6.43;;;2.63;;
60430;SDS011;46285;45.122;20.726;2023-05-07T13:07:10;6.70;;;2.50;;
60430;SDS011;46285;45.122;20.726;2023-05-07T13:17:11;8.18;;;3.17;;
60430;SDS011;46285;45.122;20.726;2023-05-07T13:27:13;6.18;;;2.42;;
60430;SDS011;46285;45.122;20.726;2023-05-07T13:37:14;5.15;;;2.70;;
60430;SDS011;46285;45.122;20.726;2023-05-07T13:47:22;5.37;;;2.20;;
60430;SDS011;46285;45.122;20.726;2023-05-07T13:57:27;6.30;;;2.72;;
60430;SDS011;46285;45.122;20.726;2023-05-07T14:07:28;5.28;;;2.03;;
60430;SDS011;46285;45.122;20.726;2023-05-07T14:17:29;7.68;;;2.83;;
60430;SDS011;46285;45.122;20.726;2023-05-07T14:27:30;8.57;;;2.83;;
60430;SDS011;46285;45.122;20.726;2023-05-07T14:37:32;5.55;;;2.50;;
60430;SDS011;46285;45.122;20.726;2023-05-07T14:47:33;5.38;;;2.00;;
60430;SDS011;46285;45.122;20.726;2023-05-07T14:57:35;5.10;;;2.17;;
60430;SDS011;46285;45.122;20.726;2023-05-07T15:07:36;5.82;;;2.13;;
60430;SDS011;46285;45.122;20.726;2023-05-07T15:17:37;6.70;;;2.20;;
60430;SDS011;46285;45.122;20.726;2023-05-07T15:27:38;7.35;;;2.08;;
60430;SDS011;46285;45.122;20.726;2023-05-07T15:37:39;7.15;;;3.05;;
60430;SDS011;46285;45.122;20.726;2023-05-07T15:47:41;7.38;;;2.20;;
60430;SDS011;46285;45.122;20.726;2023-05-07T15:57:42;7.72;;;3.30;;
60430;SDS011;46285;45.122;20.726;2023-05-07T16:07:43;7.55;;;2.30;;
60430;SDS011;46285;45.122;20.726;2023-05-07T16:17:45;6.35;;;2.45;;
60430;SDS011;46285;45.122;20.726;2023-05-07T16:27:46;6.28;;;2.28;;
60430;SDS011;46285;45.122;20.726;2023-05-07T16:37:47;10.13;;;3.17;;
60430;SDS011;46285;45.122;20.726;2023-05-07T16:47:52;7.70;;;2.78;;
60430;SDS011;46285;45.122;20.726;2023-05-07T16:57:53;9.30;;;3.03;;
60430;SDS011;46285;45.122;20.726;2023-05-07T17:07:54;7.57;;;2.97;;
60430;SDS011;46285;45.122;20.726;2023-05-07T17:17:56;14.32;;;2.90;;
60430;SDS011;46285;45.122;20.726;2023-05-07T17:27:57;10.82;;;3.05;;
60430;SDS011;46285;45.122;20.726;2023-05-07T17:37:58;7.18;;;2.42;;
60430;SDS011;46285;45.122;20.726;2023-05-07T17:47:59;9.38;;;4.75;;
60430;SDS011;46285;45.122;20.726;2023-05-07T17:58:01;8.15;;;4.07;;
60430;SDS011;46285;45.122;20.726;2023-05-07T18:08:02;11.00;;;4.15;;
60430;SDS011;46285;45.122;20.726;2023-05-07T18:18:03;18.42;;;4.57;;
60430;SDS011;46285;45.122;20.726;2023-05-07T18:28:05;16.38;;;10.48;;
60430;SDS011;46285;45.122;20.726;2023-05-07T18:38:06;7.95;;;4.55;;
60430;SDS011;46285;45.122;20.726;2023-05-07T18:48:07;8.15;;;5.20;;
60430;SDS011;46285;45.122;20.726;2023-05-07T18:58:08;11.30;;;5.72;;
60430;SDS011;46285;45.122;20.726;2023-05-07T19:08:09;14.25;;;7.50;;
60430;SDS011;46285;45.122;20.726;2023-05-07T19:18:11;10.85;;;6.57;;
60430;SDS011;46285;45.122;20.726;2023-05-07T19:28:12;10.38;;;6.68;;
60430;SDS011;46285;45.122;20.726;2023-05-07T19:38:13;8.85;;;5.60;;
60430;SDS011;46285;45.122;20.726;2023-05-07T19:48:14;10.88;;;5.80;;
60430;SDS011;46285;45.122;20.726;2023-05-07T19:58:15;10.60;;;6.18;;
60430;SDS011;46285;45.122;20.726;2023-05-07T20:08:17;9.77;;;6.18;;
60430;SDS011;46285;45.122;20.726;2023-05-07T20:18:18;9.80;;;6.85;;
60430;SDS011;46285;45.122;20.726;2023-05-07T20:28:19;10.80;;;5.75;;
60430;SDS011;46285;45.122;20.726;2023-05-07T20:38:20;10.85;;;6.05;;
60430;SDS011;46285;45.122;20.726;2023-05-07T20:48:21;10.32;;;5.43;;
60430;SDS011;46285;45.122;20.726;2023-05-07T20:58:23;14.50;;;5.95;;
60430;SDS011;46285;45.122;20.726;2023-05-07T21:08:24;10.32;;;5.57;;
60430;SDS011;46285;45.122;20.726;2023-05-07T21:18:26;11.73;;;6.18;;
60430;SDS011;46285;45.122;20.726;2023-05-07T21:28:27;8.88;;;6.28;;
60430;SDS011;46285;45.122;20.726;2023-05-07T21:38:28;12.07;;;7.28;;
60430;SDS011;46285;45.122;20.726;2023-05-07T21:48:29;10.25;;;6.82;;
60430;SDS011;46285;45.122;20.726;2023-05-07T21:58:30;10.35;;;6.38;;
60430;SDS011;46285;45.122;20.726;2023-05-07T22:08:32;9.50;;;6.63;;
60430;SDS011;46285;45.122;20.726;2023-05-07T22:18:33;9.57;;;6.00;;
60430;SDS011;46285;45.122;20.726;2023-05-07T22:28:34;10.32;;;6.45;;
60430;SDS011;46285;45.122;20.726;2023-05-07T22:38:35;16.15;;;7.22;;
60430;SDS011;46285;45.122;20.726;2023-05-07T22:48:36;9.38;;;6.88;;
60430;SDS011;46285;45.122;20.726;2023-05-07T22:58:37;10.52;;;6.07;;
60430;SDS011;46285;45.122;20.726;2023-05-07T23:08:38;9.48;;;7.03;;
60430;SDS011;46285;45.122;20.726;2023-05-07T23:18:39;8.77;;;6.40;;
60430;SDS011;46285;45.122;20.726;2023-05-07T23:28:41;10.07;;;6.55;;
60430;SDS011;46285;45.122;20.726;2023-05-07T23:38:42;9.07;;;6.35;;
60430;SDS011;46285;45.122;20.726;2023-05-07T23:48:43;10.52;;;7.03;;
60430;SDS011;46285;45.122;20.726;2023-05-07T23:58:45;10.40;;;6.05;;
